Time;durP1;ratioP1;P1;durP2;ratioP2;P2;SDS_P1;SDS_P2;PMS_P1;PMS_P2;Temp;Humidity;BMP_temperature;BMP_pressure;BME280_temperature;BME280_humidity;BME280_pressure;Samples;Min_cycle;Max_cycle;Signal;HPM_P1;HPM_P2
2021/07/10 00:00:45;;;;;;;9.70;8.70;;;;;;;19.56;81.49;101183.38;1721788;83;20900;-69
2021/07/10 00:03:12;;;;;;;10.85;8.58;;;;;;;19.52;81.34;101182.83;1721868;82;20966;-70
2021/07/10 00:05:39;;;;;;;13.95;8.65;;;;;;;19.51;81.45;101180.30;1721935;83;21609;-71
2021/07/10 00:08:06;;;;;;;10.28;7.75;;;;;;;19.49;81.36;101180.91;1721766;83;20939;-71
2021/07/10 00:10:35;;;;;;;13.60;8.68;;;;;;;19.48;81.56;101184.07;1721861;83;21440;-70
2021/07/10 00:13:04;;;;;;;12.82;8.25;;;;;;;19.48;81.68;101176.59;1721990;83;20947;-71
2021/07/10 00:15:32;;;;;;;10.48;8.88;;;;;;;19.47;81.59;101183.70;1721892;82;21522;-73
2021/07/10 00:17:59;;;;;;;9.65;7.97;;;;;;;19.45;81.70;101182.53;1721943;83;21564;-72
2021/07/10 00:20:28;;;;;;;18.15;9.40;;;;;;;19.44;81.76;101173.34;1721869;83;21429;-71
2021/07/10 00:22:55;;;;;;;19.07;8.93;;;;;;;19.43;81.81;101176.96;1721952;83;20927;-72
2021/07/10 00:25:24;;;;;;;10.63;8.05;;;;;;;19.41;81.84;101177.62;1721751;83;20947;-72
2021/07/10 00:27:51;;;;;;;11.65;8.75;;;;;;;19.38;81.89;101180.53;1721819;83;20908;-72
2021/07/10 00:30:20;;;;;;;14.90;8.55;;;;;;;19.35;81.89;101183.47;1721790;83;21516;-72
2021/07/10 00:32:48;;;;;;;9.78;8.10;;;;;;;19.31;81.91;101184.22;1720115;83;20876;-71
2021/07/10 00:35:15;;;;;;;12.23;8.60;;;;;;;19.27;81.90;101182.80;1716392;83;20928;-72
2021/07/10 00:37:42;;;;;;;10.50;8.18;;;;;;;19.23;81.92;101180.92;1716361;82;21121;-71
2021/07/10 00:40:11;;;;;;;11.18;8.25;;;;;;;19.21;81.99;101178.05;1716431;82;21350;-70
2021/07/10 00:42:39;;;;;;;12.40;8.88;;;;;;;19.17;82.17;101177.45;1716446;83;21934;-71
2021/07/10 00:45:08;;;;;;;10.28;8.68;;;;;;;19.14;82.31;101180.39;1716346;83;20912;-69
2021/07/10 00:47:35;;;;;;;10.55;7.95;;;;;;;19.12;82.49;101177.03;1716422;82;20872;-69
2021/07/10 00:50:17;;;;;;;9.85;8.85;;;;;;;19.09;82.54;101179.94;1716432;83;20966;-70
2021/07/10 00:52:43;;;;;;;14.47;8.68;;;;;;;19.06;82.58;101178.88;1716521;83;21045;-71
2021/07/10 00:55:12;;;;;;;20.08;9.70;;;;;;;19.02;82.63;101181.45;1716348;83;21132;-70
2021/07/10 00:57:42;;;;;;;10.20;7.12;;;;;;;19.00;82.86;101184.73;1716474;83;20873;-71
2021/07/10 01:00:14;;;;;;;12.85;9.23;;;;;;;19.00;83.18;101184.73;1716370;83;20848;-71
2021/07/10 01:02:42;;;;;;;11.53;7.85;;;;;;;19.00;83.17;101181.58;1716404;83;21003;-71
2021/07/10 01:05:12;;;;;;;13.88;8.23;;;;;;;19.00;83.15;101179.41;1716504;83;20939;-73
2021/07/10 01:07:41;;;;;;;12.85;8.05;;;;;;;18.97;83.22;101180.52;1716374;83;20896;-73
2021/07/10 01:10:10;;;;;;;9.58;7.83;;;;;;;18.96;83.31;101180.15;1716325;83;20939;-73
2021/07/10 01:12:39;;;;;;;15.83;9.20;;;;;;;18.94;83.26;101179.94;1716448;82;20896;-72
2021/07/10 01:15:09;;;;;;;11.48;9.28;;;;;;;18.93;83.32;101192.88;1716440;83;21444;-72
2021/07/10 01:17:37;;;;;;;14.15;9.58;;;;;;;18.91;83.37;101187.69;1716448;83;20888;-71
2021/07/10 01:20:10;;;;;;;13.88;9.95;;;;;;;18.91;83.32;101186.86;1716520;83;21351;-73
2021/07/10 01:22:38;;;;;;;11.63;9.20;;;;;;;18.89;83.34;101184.32;1716441;83;20888;-72
2021/07/10 01:25:07;;;;;;;11.80;8.10;;;;;;;18.90;83.31;101190.47;1716356;83;21481;-72
2021/07/10 01:27:34;;;;;;;13.55;9.15;;;;;;;18.89;83.30;101191.45;1716354;83;20940;-72
2021/07/10 01:30:05;;;;;;;10.28;8.23;;;;;;;18.88;83.42;101187.13;1716460;83;20983;-72
2021/07/10 01:32:33;;;;;;;12.28;8.70;;;;;;;18.86;83.44;101178.45;1716536;83;21843;-71
2021/07/10 01:35:00;;;;;;;12.30;8.98;;;;;;;18.85;83.46;101182.89;1716385;82;20880;-71
2021/07/10 01:37:27;;;;;;;10.80;8.25;;;;;;;18.84;83.43;101178.57;1716721;82;20900;-72
2021/07/10 01:39:54;;;;;;;11.57;7.97;;;;;;;18.82;83.46;101183.17;1716398;83;20972;-72
2021/07/10 01:42:21;;;;;;;11.75;8.38;;;;;;;18.80;83.39;101183.30;1716724;83;21357;-73
2021/07/10 01:44:49;;;;;;;9.80;7.45;;;;;;;18.77;83.37;101186.69;1716433;83;21159;-71
2021/07/10 01:47:16;;;;;;;10.80;8.08;;;;;;;18.73;83.37;101187.42;1716513;83;20958;-71
2021/07/10 01:49:43;;;;;;;13.65;8.48;;;;;;;18.70;83.37;101184.17;1716321;83;21447;-69
2021/07/10 01:52:11;;;;;;;13.75;8.18;;;;;;;18.67;83.29;101181.79;1716388;82;21421;-70
2021/07/10 01:54:40;;;;;;;15.90;8.60;;;;;;;18.63;83.34;101190.50;1716449;83;21061;-70
2021/07/10 01:57:09;;;;;;;18.30;8.93;;;;;;;18.59;83.36;101177.98;1716610;83;22128;-71
2021/07/10 01:59:39;;;;;;;15.55;9.13;;;;;;;18.58;83.51;101182.92;1716266;83;20908;-70
2021/07/10 02:02:06;;;;;;;10.10;8.53;;;;;;;18.58;83.68;101184.74;1752702;82;20885;-72
2021/07/10 02:04:46;;;;;;;15.08;9.20;;;;;;;18.55;83.64;101177.88;1752508;82;20968;-71
2021/07/10 02:07:14;;;;;;;11.85;8.80;;;;;;;18.54;83.74;101178.87;1734750;82;21381;-71
2021/07/10 02:09:42;;;;;;;10.38;8.35;;;;;;;18.52;83.94;101180.81;1716388;83;21149;-71
2021/07/10 02:12:13;;;;;;;9.40;8.20;;;;;;;18.51;84.05;101180.93;1716339;83;20888;-72
2021/07/10 02:14:40;;;;;;;13.30;8.28;;;;;;;18.49;84.08;101184.20;1716368;83;20848;-73
2021/07/10 02:17:07;;;;;;;10.43;8.40;;;;;;;18.48;83.95;101183.86;1716654;82;20900;-73
2021/07/10 02:19:35;;;;;;;9.88;7.83;;;;;;;18.46;84.02;101187.96;1716427;82;20948;-71
2021/07/10 02:22:05;;;;;;;12.15;8.80;;;;;;;18.46;83.97;101181.81;1716532;83;21557;-74
2021/07/10 02:24:32;;;;;;;13.72;9.20;;;;;;;18.45;84.00;101187.59;1716465;83;21002;-73
2021/07/10 02:26:59;;;;;;;13.80;9.03;;;;;;;18.43;84.09;101183.75;1716814;82;20951;-73
2021/07/10 02:29:26;;;;;;;15.03;9.45;;;;;;;18.43;84.19;101188.20;1716522;83;21417;-72
2021/07/10 02:31:53;;;;;;;11.97;8.75;;;;;;;18.43;84.26;101188.20;1716468;82;20979;-71
2021/07/10 02:34:20;;;;;;;13.50;9.25;;;;;;;18.42;84.27;101187.36;1716411;82;21012;-71
2021/07/10 02:36:47;;;;;;;14.38;8.40;;;;;;;18.41;84.12;101179.55;1716492;83;20884;-71
2021/07/10 02:39:14;;;;;;;11.73;9.58;;;;;;;18.41;84.39;101188.84;1716535;82;20979;-72
2021/07/10 02:41:40;;;;;;;14.60;9.98;;;;;;;18.41;84.53;101182.20;1716420;83;20857;-72
2021/07/10 02:44:07;;;;;;;20.05;10.00;;;;;;;18.41;84.63;101183.53;1716745;83;20904;-73
2021/07/10 02:46:35;;;;;;;17.65;9.90;;;;;;;18.41;84.85;101178.22;1752634;82;21540;-72
2021/07/10 02:49:02;;;;;;;15.40;9.18;;;;;;;18.43;84.95;101176.25;1752645;82;20929;-71
2021/07/10 02:51:29;;;;;;;13.70;8.93;;;;;;;18.46;85.00;101173.84;1752617;82;20841;-72
2021/07/10 02:53:56;;;;;;;10.98;9.08;;;;;;;18.47;84.96;101176.34;1752719;80;20916;-72
2021/07/10 02:56:24;;;;;;;14.23;9.58;;;;;;;18.49;84.88;101176.23;1752673;82;20980;-72
2021/07/10 02:58:53;;;;;;;16.95;10.05;;;;;;;18.51;85.03;101171.63;1752545;80;21474;-72
2021/07/10 03:01:20;;;;;;;13.15;9.88;;;;;;;18.54;85.19;101172.69;1752593;82;20849;-72
2021/07/10 03:03:47;;;;;;;21.15;11.28;;;;;;;18.57;85.23;101174.61;1716464;83;20868;-71
2021/07/10 03:06:14;;;;;;;24.27;11.08;;;;;;;18.61;85.20;101173.88;1752482;82;20929;-72
2021/07/10 03:08:42;;;;;;;17.90;11.15;;;;;;;18.64;85.08;101170.95;1752674;82;21014;-72
2021/07/10 03:11:11;;;;;;;14.87;11.25;;;;;;;18.69;85.05;101174.53;1752544;82;21993;-72
2021/07/10 03:13:41;;;;;;;11.80;10.53;;;;;;;18.73;84.72;101175.47;1752508;82;21403;-70
2021/07/10 03:16:08;;;;;;;14.98;11.30;;;;;;;18.79;84.33;101186.94;1752611;82;20884;-71
2021/07/10 03:18:34;;;;;;;17.92;10.78;;;;;;;18.83;84.00;101181.72;1752490;80;21450;-72
2021/07/10 03:21:01;;;;;;;15.85;10.60;;;;;;;18.89;83.89;101180.34;1752697;82;20972;-72
2021/07/10 03:23:29;;;;;;;18.87;12.58;;;;;;;18.94;83.73;101179.94;1752625;82;22026;-71
2021/07/10 03:25:56;;;;;;;12.13;10.80;;;;;;;19.00;83.36;101179.41;1752441;82;20932;-72
2021/07/10 03:28:22;;;;;;;19.30;11.85;;;;;;;19.06;83.01;101177.55;1752925;80;20933;-73
2021/07/10 03:30:52;;;;;;;17.12;10.75;;;;;;;19.11;82.75;101178.48;1752586;82;20919;-71
2021/07/10 03:33:20;;;;;;;14.95;10.95;;;;;;;19.17;82.51;101174.80;1753391;81;20912;-72
2021/07/10 03:35:47;;;;;;;21.42;11.38;;;;;;;19.23;82.36;101176.06;1758007;81;21824;-72
2021/07/10 03:38:14;;;;;;;20.48;11.90;;;;;;;19.28;82.17;101179.67;1757821;80;20944;-73
2021/07/10 03:40:41;;;;;;;12.78;11.08;;;;;;;19.35;82.16;101179.48;1757904;80;20911;-72
2021/07/10 03:43:08;;;;;;;12.35;11.05;;;;;;;19.43;81.95;101180.95;1758032;80;20935;-72
2021/07/10 03:45:35;;;;;;;21.05;11.20;;;;;;;19.50;81.80;101181.25;1758024;81;20988;-72
2021/07/10 03:48:01;;;;;;;14.35;10.13;;;;;;;19.56;81.57;101180.71;1757945;81;21919;-71
2021/07/10 03:50:28;;;;;;;13.75;11.38;;;;;;;19.62;81.33;101174.35;1757917;81;21355;-72
2021/07/10 03:52:55;;;;;;;13.58;11.25;;;;;;;19.69;81.07;101176.01;1757896;81;20920;-73
2021/07/10 03:55:23;;;;;;;15.32;11.38;;;;;;;19.77;80.79;101176.67;1757931;81;21003;-72
2021/07/10 03:57:49;;;;;;;17.02;11.38;;;;;;;19.85;80.47;101175.00;1757967;81;21370;-72
2021/07/10 04:00:19;;;;;;;15.85;11.90;;;;;;;19.94;80.14;101180.45;1757938;81;21138;-71
2021/07/10 04:02:46;;;;;;;19.62;11.20;;;;;;;20.02;79.91;101169.95;1757897;81;20923;-72
2021/07/10 04:05:13;;;;;;;12.25;10.82;;;;;;;20.13;79.56;101174.30;1757979;81;20928;-73
2021/07/10 04:07:41;;;;;;;13.35;11.68;;;;;;;20.24;79.44;101171.48;1757888;80;21427;-72
2021/07/10 04:10:09;;;;;;;12.60;11.30;;;;;;;20.36;79.42;101172.16;1757842;81;20928;-72
2021/07/10 04:12:38;;;;;;;13.10;10.85;;;;;;;20.47;79.03;101174.17;1757922;81;21386;-73
2021/07/10 04:15:06;;;;;;;14.30;10.38;;;;;;;20.62;78.65;101175.94;1757789;81;20987;-72
2021/07/10 04:17:33;;;;;;;14.03;11.35;;;;;;;20.90;78.51;101170.68;1757928;81;20956;-73
2021/07/10 04:20:01;;;;;;;18.77;10.70;;;;;;;21.30;77.70;101170.36;1757760;81;20853;-72
2021/07/10 04:22:28;;;;;;;15.48;11.10;;;;;;;21.80;76.63;101164.24;1757937;81;20884;-72
2021/07/10 04:24:55;;;;;;;13.72;11.18;;;;;;;22.37;74.95;101167.91;1757850;81;21140;-72
2021/07/10 04:27:22;;;;;;;14.65;10.98;;;;;;;22.89;73.27;101165.25;1757816;81;21420;-72
2021/07/10 04:29:49;;;;;;;14.00;9.93;;;;;;;23.37;71.85;101167.84;1758043;81;20925;-72
2021/07/10 04:32:16;;;;;;;14.33;10.05;;;;;;;23.88;70.37;101166.45;1757873;81;20888;-73
2021/07/10 04:34:43;;;;;;;10.70;9.20;;;;;;;24.44;68.30;101172.00;1750179;80;21422;-72
2021/07/10 04:37:10;;;;;;;11.83;9.28;;;;;;;24.86;66.88;101172.28;1744887;82;21520;-72
2021/07/10 04:39:38;;;;;;;11.78;9.68;;;;;;;25.25;65.27;101164.26;1744495;82;20929;-74
2021/07/10 04:42:10;;;;;;;10.08;9.18;;;;;;;25.62;64.25;101160.87;1744823;81;20925;-74
2021/07/10 04:44:34;;;;;;;14.15;9.23;;;;;;;26.03;62.79;101164.66;1743419;81;20952;-75
2021/07/10 04:47:02;;;;;;;28.35;8.93;;;;;;;26.50;61.48;101163.20;1744813;81;21414;-77
2021/07/10 04:49:29;;;;;;;11.22;9.00;;;;;;;26.96;60.03;101163.91;1744485;82;21123;-74
2021/07/10 04:51:56;;;;;;;11.20;8.60;;;;;;;27.40;58.79;101157.65;1709023;84;20988;-72
2021/07/10 04:54:26;;;;;;;12.37;9.33;;;;;;;27.83;57.43;101160.38;1708499;82;20978;-72
2021/07/10 04:56:52;;;;;;;14.65;9.93;;;;;;;28.25;56.10;101162.75;1708976;82;21448;-72
2021/07/10 04:59:20;;;;;;;16.67;9.10;;;;;;;28.64;54.99;101165.45;1708746;82;20904;-72
2021/07/10 05:01:49;;;;;;;13.05;10.23;;;;;;;28.99;53.86;101161.89;1708764;82;21040;-72
2021/07/10 05:04:16;;;;;;;11.03;9.28;;;;;;;29.33;53.39;101162.39;1744141;81;21367;-71
2021/07/10 05:06:43;;;;;;;10.72;9.63;;;;;;;29.60;51.48;101155.19;1744757;81;20956;-72
2021/07/10 05:09:09;;;;;;;11.40;10.03;;;;;;;29.87;50.94;101160.14;1744433;81;21023;-70
2021/07/10 05:11:38;;;;;;;10.88;9.75;;;;;;;30.05;50.11;101161.41;1744632;82;20928;-71
2021/07/10 05:14:05;;;;;;;11.33;9.78;;;;;;;30.17;49.86;101158.41;1744524;81;21042;-70
2021/07/10 05:16:32;;;;;;;10.43;9.43;;;;;;;30.26;48.58;101159.00;1744829;82;20873;-70
2021/07/10 05:19:00;;;;;;;11.30;9.73;;;;;;;30.28;47.96;101160.51;1744568;81;20877;-71
2021/07/10 05:21:27;;;;;;;11.18;10.08;;;;;;;30.24;48.52;101158.37;1744496;81;21403;-72
2021/07/10 05:23:54;;;;;;;10.70;9.60;;;;;;;30.28;47.62;101155.09;1744481;81;20877;-73
2021/07/10 05:26:21;;;;;;;10.60;9.65;;;;;;;30.24;47.08;101155.66;1744832;82;22152;-71
2021/07/10 05:28:48;;;;;;;10.85;9.75;;;;;;;30.15;46.67;101157.25;1744406;80;20905;-72
2021/07/10 05:31:15;;;;;;;11.05;9.85;;;;;;;30.04;47.17;101159.23;1744555;82;20932;-72
2021/07/10 05:33:43;;;;;;;11.83;10.30;;;;;;;29.97;46.75;101154.34;1744401;81;20877;-80
2021/07/10 05:36:10;;;;;;;11.28;9.48;;;;;;;30.04;47.31;101155.17;1757984;81;20853;-80
2021/07/10 05:38:37;;;;;;;14.87;10.55;;;;;;;30.09;47.33;101148.61;1757857;81;21132;-81
2021/07/10 05:41:04;;;;;;;12.25;9.73;;;;;;;30.30;47.44;101141.34;1757795;81;20936;-79
2021/07/10 05:43:31;;;;;;;10.93;9.93;;;;;;;30.55;46.77;101139.64;1758057;81;20995;-79
2021/07/10 05:45:59;;;;;;;13.83;10.40;;;;;;;30.85;46.76;101131.53;1757701;80;20944;-79
2021/07/10 05:48:27;;;;;;;11.57;9.63;;;;;;;31.14;45.19;101131.02;1757878;81;20944;-78
2021/07/10 05:50:53;;;;;;;10.90;9.15;;;;;;;31.37;44.82;101124.22;1757885;81;21112;-76
2021/07/10 05:53:20;;;;;;;10.72;9.73;;;;;;;31.60;43.46;101127.77;1757967;81;20857;-78
2021/07/10 05:55:47;;;;;;;14.55;10.13;;;;;;;31.74;42.99;101125.26;1721929;83;21416;-79
2021/07/10 05:58:15;;;;;;;12.63;10.25;;;;;;;31.92;42.49;101118.24;1704065;84;20949;-76
2021/07/10 06:00:43;;;;;;;11.90;9.83;;;;;;;32.13;41.98;101117.89;1703833;84;21476;-76
2021/07/10 06:03:10;;;;;;;11.57;9.30;;;;;;;32.39;42.51;101117.31;1703715;84;21160;-75
2021/07/10 06:05:37;;;;;;;10.20;9.18;;;;;;;32.68;41.59;101119.84;1703800;84;21446;-73
2021/07/10 06:08:05;;;;;;;14.60;9.95;;;;;;;32.92;40.70;101122.70;1703926;84;21459;-74
2021/07/10 06:10:32;;;;;;;14.43;10.25;;;;;;;33.11;40.17;101117.58;1703806;84;21477;-74
2021/07/10 06:13:00;;;;;;;11.57;9.18;;;;;;;33.29;40.01;101115.34;1703755;84;20901;-73
2021/07/10 06:15:27;;;;;;;10.32;9.28;;;;;;;33.41;39.55;101117.55;1703814;84;21194;-73
2021/07/10 06:17:56;;;;;;;11.25;10.05;;;;;;;33.53;39.02;101113.52;1703929;84;20869;-74
2021/07/10 06:20:23;;;;;;;14.53;10.55;;;;;;;33.73;39.14;101106.44;1703836;84;21024;-75
2021/07/10 06:22:51;;;;;;;11.65;9.18;;;;;;;33.94;38.66;101110.47;1703670;84;20903;-75
2021/07/10 06:25:19;;;;;;;13.78;9.18;;;;;;;34.15;38.34;101109.61;1703750;84;20893;-75
2021/07/10 06:27:48;;;;;;;10.78;9.23;;;;;;;34.32;38.20;101109.73;1703771;84;21138;-76
2021/07/10 06:30:18;;;;;;;13.18;9.98;;;;;;;34.45;38.22;101111.67;1703514;84;21043;-75
2021/07/10 06:32:45;;;;;;;11.65;9.03;;;;;;;34.57;37.97;101104.01;1703698;84;20996;-75
2021/07/10 06:35:12;;;;;;;12.55;8.58;;;;;;;34.63;37.75;101107.17;1702145;84;20910;-75
2021/07/10 06:37:39;;;;;;;10.30;8.85;;;;;;;34.77;38.10;101104.45;1708551;84;20949;-74
2021/07/10 06:40:09;;;;;;;11.70;9.23;;;;;;;35.00;37.73;101098.11;1708591;84;21128;-75
2021/07/10 06:42:36;;;;;;;14.28;8.58;;;;;;;35.15;37.41;101104.44;1708468;84;21461;-75
2021/07/10 06:45:06;;;;;;;13.93;8.73;;;;;;;35.09;37.28;101099.38;1708505;84;20991;-73
2021/07/10 06:47:33;;;;;;;9.73;8.28;;;;;;;35.15;37.78;101100.86;1708728;84;21016;-73
2021/07/10 06:49:59;;;;;;;9.73;8.68;;;;;;;35.37;37.87;101100.98;1708568;84;20956;-73
2021/07/10 06:52:27;;;;;;;12.88;8.78;;;;;;;35.69;38.14;101099.40;1708608;84;21198;-71
2021/07/10 06:54:54;;;;;;;12.28;8.25;;;;;;;36.01;36.57;101095.24;1708655;84;21465;-78
2021/07/10 06:57:21;;;;;;;9.53;8.33;;;;;;;36.17;36.16;101094.41;1708541;84;21023;-74
2021/07/10 06:59:48;;;;;;;9.88;7.72;;;;;;;36.28;35.34;101099.48;1708570;84;20933;-75
2021/07/10 07:02:14;;;;;;;8.58;7.78;;;;;;;36.35;35.15;101094.65;1708592;83;21470;-75
2021/07/10 07:04:42;;;;;;;9.88;8.13;;;;;;;36.54;35.21;101097.91;1708693;84;22151;-78
2021/07/10 07:07:09;;;;;;;8.40;7.42;;;;;;;36.83;35.27;101096.38;1708542;83;20854;-76
2021/07/10 07:09:36;;;;;;;8.95;7.80;;;;;;;37.11;34.26;101096.73;1708508;84;21458;-77
2021/07/10 07:12:04;;;;;;;8.00;7.35;;;;;;;37.32;34.11;101103.21;1708531;84;20870;-72
2021/07/10 07:14:31;;;;;;;9.33;7.95;;;;;;;37.47;33.75;101099.80;1708734;84;20944;-75
2021/07/10 07:16:59;;;;;;;9.53;7.53;;;;;;;37.54;34.04;101098.48;1708467;83;22372;-74
2021/07/10 07:19:31;;;;;;;9.48;8.18;;;;;;;37.54;33.90;101102.59;1708435;83;20984;-72
2021/07/10 07:21:58;;;;;;;10.32;7.47;;;;;;;37.63;33.90;101092.56;1708664;84;20897;-69
2021/07/10 07:24:25;;;;;;;11.55;7.42;;;;;;;37.69;32.83;101093.72;1708555;84;21024;-70
2021/07/10 07:26:52;;;;;;;12.40;7.42;;;;;;;37.72;31.92;101085.52;1708747;84;20853;-71
2021/07/10 07:29:19;;;;;;;9.23;6.92;;;;;;;37.78;31.63;101089.95;1708437;84;21130;-70
2021/07/10 07:31:46;;;;;;;9.98;6.95;;;;;;;37.68;30.87;101088.49;1708336;84;20914;-70
2021/07/10 07:34:13;;;;;;;9.73;6.20;;;;;;;37.50;31.20;101092.42;1708471;84;21465;-69
2021/07/10 07:36:40;;;;;;;9.68;6.67;;;;;;;37.30;30.99;101095.80;1701200;84;21455;-68
2021/07/10 07:39:07;;;;;;;11.03;6.90;;;;;;;37.31;32.17;101092.81;1700926;84;20901;-70
2021/07/10 07:41:36;;;;;;;10.00;6.80;;;;;;;37.35;32.05;101090.37;1700904;83;22073;-69
2021/07/10 07:44:04;;;;;;;8.23;6.35;;;;;;;37.34;32.16;101090.92;1700874;84;21408;-68
2021/07/10 07:46:32;;;;;;;9.45;5.80;;;;;;;37.39;31.04;101080.56;1701270;84;20944;-69
2021/07/10 07:48:59;;;;;;;9.90;6.25;;;;;;;37.46;30.44;101085.27;1701047;83;20881;-69
2021/07/10 07:51:26;;;;;;;9.88;6.47;;;;;;;37.50;30.51;101082.30;1700939;84;21032;-71
2021/07/10 07:53:53;;;;;;;7.28;5.72;;;;;;;37.68;30.45;101076.17;1700938;83;21128;-76
2021/07/10 07:56:20;;;;;;;11.70;6.50;;;;;;;37.90;30.55;101074.13;1700870;84;20941;-72
2021/07/10 07:58:47;;;;;;;8.85;5.87;;;;;;;38.19;30.80;101075.71;1700985;84;20862;-76
2021/07/10 08:01:15;;;;;;;9.28;5.12;;;;;;;38.44;29.64;101073.08;1700887;83;20957;-73
2021/07/10 08:03:43;;;;;;;6.92;4.67;;;;;;;38.61;29.43;101071.53;1700871;84;20905;-73
2021/07/10 08:06:10;;;;;;;6.45;4.85;;;;;;;38.77;28.29;101073.22;1700959;84;21135;-74
2021/07/10 08:08:38;;;;;;;6.22;5.50;;;;;;;38.89;27.84;101068.06;1700959;84;20942;-72
2021/07/10 08:11:07;;;;;;;6.35;5.05;;;;;;;39.03;27.85;101060.98;1700998;84;20949;-70
2021/07/10 08:13:38;;;;;;;8.15;4.28;;;;;;;39.18;27.10;101069.78;1700913;84;21012;-79
2021/07/10 08:16:08;;;;;;;8.78;4.42;;;;;;;39.29;26.82;101062.39;1700985;84;20953;-80
2021/07/10 08:18:36;;;;;;;6.53;5.60;;;;;;;39.43;27.13;101058.02;1701060;83;20868;-78
2021/07/10 08:21:03;;;;;;;6.85;3.80;;;;;;;39.57;26.34;101051.41;1700554;84;21023;-78
2021/07/10 08:23:30;;;;;;;5.53;4.72;;;;;;;39.70;26.24;101049.47;1700873;84;20914;-80
2021/07/10 08:25:57;;;;;;;6.30;5.70;;;;;;;39.84;26.40;101053.86;1701188;84;20913;-78
2021/07/10 08:28:23;;;;;;;6.17;4.83;;;;;;;39.99;25.50;101052.45;1700905;84;20969;-79
2021/07/10 08:30:51;;;;;;;5.37;4.62;;;;;;;40.09;24.41;101052.14;1700963;83;21559;-78
2021/07/10 08:33:18;;;;;;;6.67;4.62;;;;;;;40.07;24.57;101042.83;1700831;84;20906;-75
2021/07/10 08:35:45;;;;;;;5.03;4.47;;;;;;;40.12;23.51;101045.55;1700976;84;21005;-78
2021/07/10 08:38:11;;;;;;;8.70;4.45;;;;;;;40.12;23.13;101041.98;1700841;83;21588;-78
2021/07/10 08:40:39;;;;;;;4.58;3.87;;;;;;;40.15;23.50;101045.54;1701074;84;20938;-77
2021/07/10 08:43:06;;;;;;;11.05;4.05;;;;;;;40.14;22.74;101046.66;1701194;83;21531;-79
2021/07/10 08:45:35;;;;;;;5.97;3.98;;;;;;;40.07;23.09;101033.77;1700795;83;20933;-77
2021/07/10 08:48:04;;;;;;;6.00;4.12;;;;;;;40.07;23.21;101040.64;1701126;84;20914;-79
2021/07/10 08:50:31;;;;;;;4.65;3.77;;;;;;;39.90;22.60;101032.72;1700904;84;20870;-76
2021/07/10 08:52:58;;;;;;;4.08;3.75;;;;;;;39.76;23.53;101035.19;1701149;83;21398;-78
2021/07/10 08:55:25;;;;;;;11.30;4.22;;;;;;;39.88;24.16;101037.11;1700976;84;21143;-76
2021/07/10 08:57:52;;;;;;;5.85;4.25;;;;;;;39.90;23.98;101036.27;1701160;84;21391;-74
2021/07/10 09:00:30;;;;;;;6.25;4.05;;;;;;;39.70;24.47;101039.86;1700934;84;20937;-72
2021/07/10 09:02:57;;;;;;;3.98;3.25;;;;;;;39.56;23.73;101036.87;1701082;83;20992;-69
2021/07/10 09:05:24;;;;;;;4.15;3.58;;;;;;;39.33;24.11;101034.13;1700896;84;20917;-74
2021/07/10 09:08:13;;;;;;;4.97;4.00;;;;;;;38.97;24.28;101031.89;1701273;84;21497;-69
2021/07/10 09:10:41;;;;;;;3.85;2.95;;;;;;;38.69;24.66;101028.53;1700877;83;20945;-69
2021/07/10 09:13:08;;;;;;;5.05;3.52;;;;;;;38.52;24.38;101023.27;1701148;84;21391;-68
2021/07/10 09:15:35;;;;;;;7.35;4.30;;;;;;;38.61;24.51;101018.64;1700905;84;20977;-68
2021/07/10 09:18:08;;;;;;;3.52;3.30;;;;;;;38.78;25.46;101013.74;1700826;84;21574;-66
2021/07/10 09:20:36;;;;;;;5.10;3.37;;;;;;;38.99;25.12;101005.56;1700995;84;26666;-67
2021/07/10 09:23:05;;;;;;;5.20;4.45;;;;;;;39.16;23.84;101008.31;1701187;83;20893;-68
2021/07/10 09:25:32;;;;;;;6.30;4.08;;;;;;;39.39;24.05;101006.13;1698417;84;20893;-68
2021/07/10 09:28:02;;;;;;;7.12;3.52;;;;;;;39.52;23.82;101002.01;1701014;84;21414;-68
2021/07/10 09:30:37;;;;;;;5.40;3.47;;;;;;;39.61;23.02;100999.53;1700981;84;20898;-68
2021/07/10 09:33:19;;;;;;;5.72;3.30;;;;;;;39.62;22.81;101000.59;1700442;83;21533;-67
2021/07/10 09:35:58;;;;;;;8.85;4.95;;;;;;;39.57;22.84;100998.69;1700700;84;20945;-67
2021/07/10 09:38:34;;;;;;;3.70;3.40;;;;;;;39.54;22.94;100999.25;1700818;84;20997;-70
2021/07/10 09:41:08;;;;;;;5.08;3.30;;;;;;;39.50;22.96;101003.65;1700900;84;20953;-65
2021/07/10 09:43:37;;;;;;;3.22;2.92;;;;;;;39.44;23.38;101003.37;1701119;84;20945;-70
2021/07/10 09:46:08;;;;;;;4.15;3.17;;;;;;;39.41;23.08;100994.33;1700884;84;21155;-72
2021/07/10 09:51:24;;;;;;;6.00;3.40;;;;;;;39.28;22.97;100993.49;1798553;79;22440;-69
2021/07/10 09:54:11;;;;;;;3.60;3.20;;;;;;;39.20;22.91;100993.51;1758239;81;20900;-71
2021/07/10 09:57:00;;;;;;;5.67;3.10;;;;;;;39.12;22.98;100997.61;1758343;81;21550;-72
2021/07/10 09:59:28;;;;;;;3.58;3.27;;;;;;;39.08;23.80;100993.77;1698665;84;21042;-72
2021/07/10 10:01:55;;;;;;;4.40;4.10;;;;;;;39.13;23.99;100997.05;1708871;83;20885;-72
2021/07/10 10:04:26;;;;;;;3.00;2.70;;;;;;;39.07;23.67;100991.31;1708842;83;21007;-73
2021/07/10 10:06:56;;;;;;;8.48;3.50;;;;;;;39.12;23.90;100990.75;1709159;84;20996;-73
2021/07/10 10:09:27;;;;;;;5.83;3.70;;;;;;;39.16;23.41;100991.03;1708460;84;21162;-73
2021/07/10 10:12:02;;;;;;;;;;;;;;;39.10;23.45;100983.34;1711922;84;20945;-72
2021/07/10 10:14:33;;;;;;;3.37;2.92;;;;;;;39.16;23.70;100990.48;1708913;84;20089;-73
2021/07/10 10:17:00;;;;;;;3.92;3.12;;;;;;;39.19;23.83;100979.50;1709227;84;22578;-73
2021/07/10 10:19:30;;;;;;;3.92;2.95;;;;;;;39.13;24.50;100990.19;1708941;83;20904;-73
2021/07/10 10:22:00;;;;;;;3.42;3.12;;;;;;;38.93;23.89;100987.74;1708996;83;22193;-72
2021/07/10 10:24:29;;;;;;;4.92;2.67;;;;;;;38.89;23.72;100987.98;1708830;84;20908;-74
2021/07/10 10:26:57;;;;;;;4.17;2.92;;;;;;;38.75;24.07;100988.22;1708823;83;21018;-77
2021/07/10 10:29:25;;;;;;;9.68;3.42;;;;;;;38.58;24.75;100978.88;1709777;81;20912;-72
2021/07/10 10:31:52;;;;;;;4.80;3.42;;;;;;;38.54;24.17;100973.66;1758500;80;20896;-71
2021/07/10 10:34:19;;;;;;;2.95;2.75;;;;;;;38.61;23.88;100979.70;1758371;81;21120;-72
2021/07/10 10:36:48;;;;;;;3.80;3.45;;;;;;;38.70;24.11;100972.58;1708312;83;21638;-74
2021/07/10 10:39:18;;;;;;;4.00;3.52;;;;;;;38.86;24.57;100976.72;1724804;83;20887;-74
2021/07/10 10:41:48;;;;;;;4.60;3.10;;;;;;;38.94;24.09;100978.95;1724658;83;20946;-73
2021/07/10 10:44:16;;;;;;;3.33;3.02;;;;;;;38.96;24.42;100973.47;1724969;83;20931;-74
2021/07/10 10:46:55;;;;;;;3.27;2.80;;;;;;;38.93;23.96;100974.03;1725093;83;21499;-74
2021/07/10 10:49:45;;;;;;;4.20;3.08;;;;;;;38.93;23.37;100969.91;1721654;83;20916;-75
2021/07/10 10:52:33;;;;;;;4.30;3.22;;;;;;;38.99;23.11;100963.86;1709381;84;20991;-76
2021/07/10 10:55:16;;;;;;;3.98;2.72;;;;;;;39.03;23.10;100966.89;1709362;84;21437;-76
2021/07/10 10:58:16;;;;;;;3.87;2.95;;;;;;;39.04;23.67;100952.06;1709508;84;20888;-77
2021/07/10 11:00:47;;;;;;;3.15;2.80;;;;;;;39.16;23.98;100955.37;1709440;84;21547;-77
2021/07/10 11:03:21;;;;;;;9.83;3.15;;;;;;;39.25;23.42;100961.12;1708747;84;20888;-80
2021/07/10 11:05:54;;;;;;;7.92;2.80;;;;;;;39.22;23.32;100959.76;1708688;84;20912;-80
2021/07/10 11:08:32;;;;;;;3.40;3.10;;;;;;;39.19;23.44;100953.44;1708463;84;20947;-81
2021/07/10 11:11:06;;;;;;;7.08;3.37;;;;;;;39.16;23.64;100956.73;1708157;84;20869;-81
2021/07/10 11:13:46;;;;;;;6.55;2.80;;;;;;;38.95;24.23;100945.78;1708237;84;21116;-80
2021/07/10 11:16:19;;;;;;;6.22;3.27;;;;;;;38.66;24.34;100957.77;1708017;84;20997;-80
2021/07/10 11:19:04;;;;;;;4.55;2.67;;;;;;;38.42;24.51;100956.59;1707845;84;20856;-80
2021/07/10 11:21:48;;;;;;;3.67;2.95;;;;;;;38.28;24.88;100952.18;1708322;84;21019;-81
2021/07/10 11:24:20;;;;;;;8.40;3.45;;;;;;;38.25;25.52;100952.73;1708538;82;20936;-79
2021/07/10 11:26:59;;;;;;;6.53;3.15;;;;;;;38.03;25.31;100942.78;1708354;84;21155;-80
2021/07/10 11:29:35;;;;;;;3.70;2.80;;;;;;;37.77;25.16;100953.31;1708051;82;20896;-79